Time;durP1;ratioP1;P1;durP2;ratioP2;P2;SDS_P1;SDS_P2;PMS_P1;PMS_P2;Temp;Humidity;BMP_temperature;BMP_pressure;BME280_temperature;BME280_humidity;BME280_pressure;Samples;Min_cycle;Max_cycle;Signal;HPM_P1;HPM_P2
2022/04/06 00:01:56;;;;;;;;;;;;;;;17.93;44.40;100438.75;4996366;28;947;-53
2022/04/06 00:04:23;;;;;;;;;;;;;;;17.94;44.48;100434.91;4996385;28;979;-54
2022/04/06 00:06:52;;;;;;;;;;;;;;;17.91;44.44;100424.50;4997110;28;849;-55
2022/04/06 00:09:18;;;;;;;;;;;;;;;17.92;44.26;100418.69;5003148;28;803;-54
2022/04/06 00:11:44;;;;;;;;;;;;;;;17.95;44.29;100429.09;5019840;28;827;-53
2022/04/06 00:14:09;;;;;;;;;;;;;;;17.88;44.51;100416.75;5019281;28;850;-54
2022/04/06 00:16:35;;;;;;;;;;;;;;;17.84;44.44;100427.53;5007322;28;1995;-54
2022/04/06 00:19:00;;;;;;;;;;;;;;;17.71;44.45;100428.22;5001017;28;830;-54
2022/04/06 00:21:27;;;;;;;;;;;;;;;17.57;43.85;100430.81;5000339;28;782;-54
2022/04/06 00:23:53;;;;;;;;;;;;;;;17.33;42.70;100437.06;5001401;28;835;-55
2022/04/06 00:26:19;;;;;;;;;;;;;;;17.07;41.90;100433.69;5019136;28;835;-55
2022/04/06 00:28:44;;;;;;;;;;;;;;;16.96;41.16;100434.84;5012474;28;897;-54
2022/04/06 00:31:10;;;;;;;;;;;;;;;16.73;40.89;100438.00;5000321;28;836;-55
2022/04/06 00:33:35;;;;;;;;;;;;;;;16.69;40.41;100445.16;5000331;28;841;-54
2022/04/06 00:36:01;;;;;;;;;;;;;;;16.65;41.04;100443.22;5012664;28;1983;-55
2022/04/06 00:38:26;;;;;;;;;;;;;;;16.84;42.46;100451.66;4993218;28;1550;-54
2022/04/06 00:40:51;;;;;;;;;;;;;;;17.23;45.22;100442.63;4999498;28;901;-54
2022/04/06 00:43:17;;;;;;;;;;;;;;;17.83;45.57;100441.59;5000237;28;870;-54
2022/04/06 00:45:43;;;;;;;;;;;;;;;18.26;44.54;100438.97;4999729;28;886;-54
2022/04/06 00:48:08;;;;;;;;;;;;;;;18.65;43.72;100451.69;4999801;28;882;-54
2022/04/06 00:50:34;;;;;;;;;;;;;;;18.78;43.11;100447.38;4999994;28;878;-53
2022/04/06 00:52:59;;;;;;;;;;;;;;;18.54;43.29;100447.44;4999866;28;808;-54
2022/04/06 00:55:25;;;;;;;;;;;;;;;17.93;43.14;100441.50;4992633;28;1906;-53
2022/04/06 00:57:51;;;;;;;;;;;;;;;17.56;42.31;100443.75;5018796;28;846;-55
2022/04/06 01:00:17;;;;;;;;;;;;;;;17.29;41.60;100452.47;5018692;28;873;-54
2022/04/06 01:02:42;;;;;;;;;;;;;;;17.04;40.95;100446.06;5018519;28;1058;-55
2022/04/06 01:05:08;;;;;;;;;;;;;;;16.86;40.17;100439.28;5018568;28;1489;-54
2022/04/06 01:07:33;;;;;;;;;;;;;;;16.68;39.94;100451.72;5015749;28;787;-54
2022/04/06 01:09:59;;;;;;;;;;;;;;;16.54;39.83;100443.28;5006674;28;837;-53
2022/04/06 01:12:24;;;;;;;;;;;;;;;16.61;40.67;100445.72;4999705;28;841;-54
2022/04/06 01:14:50;;;;;;;;;;;;;;;16.66;41.65;100434.72;4981828;28;1087;-54
2022/04/06 01:17:15;;;;;;;;;;;;;;;16.93;43.13;100450.81;4999490;28;1898;-54
2022/04/06 01:19:43;;;;;;;;;;;;;;;17.08;44.35;100444.41;4998741;28;858;-53
2022/04/06 01:22:08;;;;;;;;;;;;;;;17.24;44.66;100444.28;4999553;28;832;-55
2022/04/06 01:24:34;;;;;;;;;;;;;;;17.22;45.10;100438.25;4999002;28;953;-55
2022/04/06 01:27:01;;;;;;;;;;;;;;;17.29;45.69;100444.22;4999320;28;876;-54
2022/04/06 01:29:26;;;;;;;;;;;;;;;17.45;45.44;100450.44;4999217;28;786;-54
2022/04/06 01:31:52;;;;;;;;;;;;;;;17.47;45.46;100447.41;4998703;28;968;-55
2022/04/06 01:34:17;;;;;;;;;;;;;;;17.50;45.62;100449.56;4998881;28;1440;-53
2022/04/06 01:36:43;;;;;;;;;;;;;;;17.51;45.65;100442.97;4998932;28;1981;-54
2022/04/06 01:39:08;;;;;;;;;;;;;;;17.54;45.61;100453.38;4998846;28;1122;-54
2022/04/06 01:41:34;;;;;;;;;;;;;;;17.54;45.47;100442.41;4999136;28;790;-54
2022/04/06 01:43:59;;;;;;;;;;;;;;;17.57;45.45;100452.81;4999332;28;759;-54
2022/04/06 01:46:26;;;;;;;;;;;;;;;17.62;45.61;100452.78;5010466;28;828;-53
2022/04/06 01:54:22;;;;;;;;;;;;;;;17.79;45.21;100466.94;5010418;28;992;-55
2022/04/06 01:56:47;;;;;;;;;;;;;;;17.79;45.04;100453.19;4998624;28;1969;-54
2022/04/06 01:59:13;;;;;;;;;;;;;;;17.77;44.99;100463.63;5013322;28;874;-55
2022/04/06 02:01:38;;;;;;;;;;;;;;;17.85;44.89;100464.94;5017308;28;815;-55
2022/04/06 02:04:12;;;;;;;;;;;;;;;17.85;44.87;100461.38;5017313;28;778;-55
2022/04/06 02:06:37;;;;;;;;;;;;;;;17.87;44.68;100459.16;4999698;28;822;-54
2022/04/06 02:09:02;;;;;;;;;;;;;;;17.87;44.67;100459.16;5015595;28;847;-54
2022/04/06 02:11:28;;;;;;;;;;;;;;;17.93;44.55;100455.25;5011883;28;834;-53
2022/04/06 02:13:53;;;;;;;;;;;;;;;17.92;44.16;100456.38;5017316;28;849;-55
2022/04/06 02:16:19;;;;;;;;;;;;;;;17.96;44.24;100460.19;5016962;28;1902;-55
2022/04/06 02:18:44;;;;;;;;;;;;;;;17.94;44.21;100459.66;5017063;28;899;-55
2022/04/06 02:21:10;;;;;;;;;;;;;;;17.98;44.20;100460.72;4999044;28;797;-55
2022/04/06 02:23:35;;;;;;;;;;;;;;;17.97;44.31;100461.03;5013724;28;1004;-54
2022/04/06 02:26:01;;;;;;;;;;;;;;;17.97;44.14;100464.56;4998301;28;938;-54
2022/04/06 02:28:26;;;;;;;;;;;;;;;17.93;43.92;100456.06;4998411;28;759;-55
2022/04/06 02:30:51;;;;;;;;;;;;;;;17.77;44.22;100463.63;4991012;28;848;-55
2022/04/06 02:33:17;;;;;;;;;;;;;;;17.70;44.41;100463.16;4998132;28;812;-55
2022/04/06 02:35:42;;;;;;;;;;;;;;;17.65;44.19;100481.63;4997704;28;1973;-54
2022/04/06 02:38:08;;;;;;;;;;;;;;;17.59;44.28;100467.91;4998028;28;1261;-55
2022/04/06 02:40:33;;;;;;;;;;;;;;;17.54;44.28;100465.19;4997772;28;831;-55
2022/04/06 02:42:58;;;;;;;;;;;;;;;17.53;44.15;100466.31;4998042;28;772;-55
2022/04/06 02:45:24;;;;;;;;;;;;;;;17.44;44.50;100471.59;4997841;28;762;-55
2022/04/06 02:47:49;;;;;;;;;;;;;;;17.49;44.29;100472.66;4997763;28;1088;-56
2022/04/06 02:50:15;;;;;;;;;;;;;;;17.40;44.26;100465.06;5014024;28;894;-55
2022/04/06 02:52:40;;;;;;;;;;;;;;;17.40;44.34;100465.06;5016587;28;809;-55
2022/04/06 02:55:08;;;;;;;;;;;;;;;17.38;44.29;100455.47;5013465;28;1915;-55
2022/04/06 02:57:34;;;;;;;;;;;;;;;17.34;44.29;100457.94;5016184;28;874;-55
2022/04/06 02:59:59;;;;;;;;;;;;;;;17.27;44.38;100455.50;5015345;28;666;-55
2022/04/06 03:02:25;;;;;;;;;;;;;;;17.28;44.26;100456.34;5011317;28;815;-55
2022/04/06 03:04:50;;;;;;;;;;;;;;;17.26;44.48;100464.03;5016280;28;774;-55
2022/04/06 03:07:19;;;;;;;;;;;;;;;17.26;44.21;100472.28;5016422;28;806;-55
2022/04/06 03:09:44;;;;;;;;;;;;;;;17.32;44.37;100473.91;5006444;28;1011;-54
2022/04/06 03:12:10;;;;;;;;;;;;;;;17.23;44.15;100478.38;4997417;28;763;-56
2022/04/06 03:14:35;;;;;;;;;;;;;;;17.18;44.23;100478.38;4996990;28;870;-55
2022/04/06 03:17:01;;;;;;;;;;;;;;;17.18;44.00;100473.72;4997486;28;1994;-55
2022/04/06 03:19:26;;;;;;;;;;;;;;;17.16;44.18;100480.63;4997160;28;821;-54
2022/04/06 03:21:52;;;;;;;;;;;;;;;17.09;44.23;100476.25;4997098;28;889;-54
2022/04/06 03:24:17;;;;;;;;;;;;;;;17.08;44.07;100488.34;4997161;28;865;-54
2022/04/06 03:26:42;;;;;;;;;;;;;;;17.05;44.33;100490.84;4996696;28;883;-54
2022/04/06 03:29:08;;;;;;;;;;;;;;;17.03;44.29;100488.38;5016557;28;758;-55
2022/04/06 03:31:33;;;;;;;;;;;;;;;17.09;44.41;100489.97;5016115;28;829;-54
2022/04/06 03:33:59;;;;;;;;;;;;;;;17.03;44.12;100488.38;5016000;28;948;-58
2022/04/06 03:36:24;;;;;;;;;;;;;;;17.07;44.43;100488.63;5016212;28;1910;-56
2022/04/06 03:38:50;;;;;;;;;;;;;;;17.10;44.31;100493.56;5012727;28;1010;-56
2022/04/06 03:41:15;;;;;;;;;;;;;;;17.10;44.29;100502.63;4996830;28;878;-60
2022/04/06 03:43:40;;;;;;;;;;;;;;;17.12;44.35;100504.25;4999723;28;835;-56
2022/04/06 03:46:06;;;;;;;;;;;;;;;17.07;44.36;100511.44;5001180;28;831;-57
2022/04/06 03:48:32;;;;;;;;;;;;;;;17.07;44.52;100511.44;5001443;28;807;-57
2022/04/06 03:50:57;;;;;;;;;;;;;;;17.02;44.27;100508.69;5001669;28;877;-58
2022/04/06 03:53:23;;;;;;;;;;;;;;;17.06;44.50;100508.97;5010272;28;939;-59
2022/04/06 03:55:48;;;;;;;;;;;;;;;17.12;44.18;100523.50;5017754;28;1984;-57
2022/04/06 03:58:14;;;;;;;;;;;;;;;17.08;44.27;100518.56;5019531;28;1033;-62
2022/04/06 04:00:39;;;;;;;;;;;;;;;17.12;44.11;100524.31;5015111;28;1257;-62
2022/04/06 04:03:06;;;;;;;;;;;;;;;17.02;44.18;100511.44;4998865;28;880;-60
2022/04/06 04:05:32;;;;;;;;;;;;;;;17.07;44.05;100518.84;5018828;28;843;-62
2022/04/06 04:07:57;;;;;;;;;;;;;;;17.06;44.32;100508.97;4999899;28;1109;-63
2022/04/06 04:10:23;;;;;;;;;;;;;;;17.07;44.19;100508.69;5008221;28;1383;-62
2022/04/06 04:12:48;;;;;;;;;;;;;;;17.18;44.42;100522.34;5019389;28;847;-61
2022/04/06 04:15:13;;;;;;;;;;;;;;;17.14;44.25;100522.13;5011741;28;1934;-61
2022/04/06 04:17:39;;;;;;;;;;;;;;;17.23;44.25;100508.59;5000833;28;826;-61
2022/04/06 04:20:05;;;;;;;;;;;;;;;17.21;44.44;100516.31;5019509;28;742;-60
2022/04/06 04:22:30;;;;;;;;;;;;;;;17.20;44.35;100512.72;5018690;28;990;-60
2022/04/06 04:24:56;;;;;;;;;;;;;;;17.27;44.47;100520.66;4999663;28;1028;-60
2022/04/06 04:27:22;;;;;;;;;;;;;;;17.15;44.33;100518.22;5000457;28;782;-59
2022/04/06 04:29:47;;;;;;;;;;;;;;;17.22;44.61;100520.69;4999537;28;1069;-59
2022/04/06 04:32:14;;;;;;;;;;;;;;;17.24;44.27;100523.97;4999219;28;960;-59
2022/04/06 04:34:40;;;;;;;;;;;;;;;17.24;44.25;100524.78;5012300;28;787;-60
2022/04/06 04:37:05;;;;;;;;;;;;;;;17.30;44.32;100535.75;5002619;28;1910;-60
2022/04/06 04:39:31;;;;;;;;;;;;;;;17.30;44.36;100553.06;4998874;28;1181;-60
2022/04/06 04:41:57;;;;;;;;;;;;;;;17.26;44.51;100549.22;4999969;28;831;-59
2022/04/06 04:44:22;;;;;;;;;;;;;;;17.33;43.65;100555.22;4999719;28;827;-59
2022/04/06 04:46:48;;;;;;;;;;;;;;;17.39;43.41;100565.09;4999953;28;866;-60
2022/04/06 04:49:13;;;;;;;;;;;;;;;17.36;43.43;100556.59;4999546;28;759;-60
2022/04/06 04:51:39;;;;;;;;;;;;;;;17.34;43.83;100569.81;5000066;28;868;-58
2022/04/06 04:54:04;;;;;;;;;;;;;;;17.34;43.58;100567.06;4999541;28;778;-59
2022/04/06 04:56:32;;;;;;;;;;;;;;;17.34;43.63;100578.88;4999272;28;1917;-59
2022/04/06 04:58:58;;;;;;;;;;;;;;;17.36;43.66;100573.09;4999501;28;808;-60
2022/04/06 05:01:24;;;;;;;;;;;;;;;17.36;43.84;100568.44;4999649;28;817;-60
2022/04/06 05:03:50;;;;;;;;;;;;;;;17.41;43.66;100573.88;4999815;28;778;-59
2022/04/06 05:06:15;;;;;;;;;;;;;;;17.45;43.41;100572.19;4999669;28;1039;-58
2022/04/06 05:08:41;;;;;;;;;;;;;;;17.47;43.66;100573.84;4999390;28;783;-61
2022/04/06 05:11:06;;;;;;;;;;;;;;;17.42;43.45;100577.47;5014520;28;772;-62
2022/04/06 05:13:32;;;;;;;;;;;;;;;17.44;43.47;100578.78;5017918;28;838;-61
2022/04/06 05:15:58;;;;;;;;;;;;;;;17.41;43.55;100575.81;5017945;28;1979;-61
2022/04/06 05:18:23;;;;;;;;;;;;;;;17.43;43.65;100579.94;5018185;28;792;-62
2022/04/06 05:20:49;;;;;;;;;;;;;;;17.45;43.74;100576.88;5017663;28;888;-61
2022/04/06 05:23:15;;;;;;;;;;;;;;;17.42;43.55;100578.28;4999266;28;919;-60
2022/04/06 05:25:40;;;;;;;;;;;;;;;17.42;43.46;100578.28;4999219;28;984;-61
2022/04/06 05:28:06;;;;;;;;;;;;;;;17.48;43.50;100575.50;4998503;28;874;-60
2022/04/06 05:30:32;;;;;;;;;;;;;;;17.48;43.39;100581.00;5018080;28;822;-60
2022/04/06 05:32:57;;;;;;;;;;;;;;;17.48;43.46;100586.50;5018126;28;958;-60
2022/04/06 05:35:24;;;;;;;;;;;;;;;17.50;43.65;100603.50;5002273;28;1969;-60
2022/04/06 05:37:49;;;;;;;;;;;;;;;17.43;43.67;100593.66;4999012;28;1066;-60
2022/04/06 05:40:16;;;;;;;;;;;;;;;17.50;43.66;100600.78;4998998;28;917;-60
2022/04/06 05:42:41;;;;;;;;;;;;;;;17.50;43.37;100598.03;4998933;28;1085;-61
2022/04/06 05:45:07;;;;;;;;;;;;;;;17.47;43.56;100593.91;4998992;28;881;-62
2022/04/06 05:47:33;;;;;;;;;;;;;;;17.47;43.68;100590.34;5003699;28;807;-61
2022/04/06 05:49:58;;;;;;;;;;;;;;;17.55;43.60;100600.75;5003502;28;1288;-50
2022/04/06 05:52:24;;;;;;;;;;;;;;;17.51;43.69;100594.97;5008875;28;1344;-49
2022/04/06 05:54:51;;;;;;;;;;;;;;;17.51;43.52;100599.66;5006442;28;873;-49
2022/04/06 05:57:16;;;;;;;;;;;;;;;17.50;43.57;100607.09;4997778;28;1906;-52
2022/04/06 05:59:42;;;;;;;;;;;;;;;17.53;43.63;100606.53;4998755;28;1541;-53
2022/04/06 06:02:08;;;;;;;;;;;;;;;17.52;43.62;100615.06;4991793;28;1346;-48
2022/04/06 06:04:33;;;;;;;;;;;;;;;17.53;43.61;100605.69;4995321;28;1129;-52
2022/04/06 06:06:59;;;;;;;;;;;;;;;17.52;43.78;100609.56;4999297;28;1454;-51
2022/04/06 06:09:25;;;;;;;;;;;;;;;17.51;43.74;100613.41;5000126;28;1244;-51
2022/04/06 06:11:50;;;;;;;;;;;;;;;17.59;43.59;100612.81;5002956;28;1601;-51
2022/04/06 06:14:16;;;;;;;;;;;;;;;17.57;43.70;100607.59;5004968;28;1525;-51
2022/04/06 06:16:41;;;;;;;;;;;;;;;17.66;43.25;100616.06;5016547;28;1963;-52
2022/04/06 06:19:06;;;;;;;;;;;;;;;17.74;43.15;100618.22;5008529;28;1497;-53
2022/04/06 06:21:32;;;;;;;;;;;;;;;17.66;43.09;100607.00;5000955;28;1396;-53
2022/04/06 06:24:02;;;;;;;;;;;;;;;17.65;43.42;100608.09;5003683;28;1374;-52
2022/04/06 06:26:28;;;;;;;;;;;;;;;17.62;43.52;100615.00;5000174;28;1296;-50
2022/04/06 06:28:53;;;;;;;;;;;;;;;17.62;43.41;100617.75;4998392;28;1418;-52
2022/04/06 06:31:18;;;;;;;;;;;;;;;17.65;43.29;100621.84;5010749;28;886;-52
2022/04/06 06:33:44;;;;;;;;;;;;;;;17.68;43.38;100624.03;5009959;28;1549;-52
2022/04/06 06:36:09;;;;;;;;;;;;;;;17.66;43.18;100624.31;4979468;28;1904;-52
2022/04/06 06:38:35;;;;;;;;;;;;;;;17.63;43.55;100622.16;5006570;28;1344;-53
2022/04/06 06:41:01;;;;;;;;;;;;;;;17.61;43.54;100616.09;4996309;28;1435;-53
2022/04/06 06:43:27;;;;;;;;;;;;;;;17.65;43.44;100625.41;5002929;28;826;-52
2022/04/06 06:45:52;;;;;;;;;;;;;;;17.62;43.51;100617.75;5012064;28;1352;-53
2022/04/06 06:48:18;;;;;;;;;;;;;;;17.68;43.27;100630.34;5002065;28;1322;-51
2022/04/06 06:50:43;;;;;;;;;;;;;;;17.70;43.15;100630.09;4995962;28;1290;-52
2022/04/06 06:53:08;;;;;;;;;;;;;;;17.61;43.29;100629.84;4997222;28;1354;-51
2022/04/06 06:55:34;;;;;;;;;;;;;;;17.71;43.25;100632.53;5008359;28;1971;-50
2022/04/06 06:57:59;;;;;;;;;;;;;;;17.73;43.32;100626.75;5015438;28;909;-51
2022/04/06 07:00:25;;;;;;;;;;;;;;;17.71;43.23;100640.78;5003721;28;1301;-49
2022/04/06 07:02:50;;;;;;;;;;;;;;;17.76;43.34;100638.00;5008865;28;1186;-49
2022/04/06 07:05:15;;;;;;;;;;;;;;;17.78;43.04;100627.53;4995736;28;1290;-51
2022/04/06 07:07:47;;;;;;;;;;;;;;;17.76;43.12;100632.50;5002805;28;1368;-51
2022/04/06 07:10:12;;;;;;;;;;;;;;;17.71;43.57;100634.47;5009649;28;1305;-51
2022/04/06 07:12:38;;;;;;;;;;;;;;;17.74;43.27;100642.97;4996390;28;1353;-49
2022/04/06 07:15:03;;;;;;;;;;;;;;;17.74;43.41;100648.47;4996174;28;1333;-51
2022/04/06 07:17:29;;;;;;;;;;;;;;;17.76;43.46;100654.50;5006345;28;1979;-51
2022/04/06 07:19:54;;;;;;;;;;;;;;;17.73;43.15;100649.56;5003457;28;1107;-50
2022/04/06 07:22:20;;;;;;;;;;;;;;;17.71;43.21;100642.72;4996242;28;1128;-52
2022/04/06 07:24:45;;;;;;;;;;;;;;;17.75;43.26;100658.38;4993898;28;1347;-51
2022/04/06 07:27:12;;;;;;;;;;;;;;;17.70;43.57;100643.84;4995944;28;1374;-47
2022/04/06 07:29:37;;;;;;;;;;;;;;;17.72;43.11;100656.16;4999262;28;1144;-51
2022/04/06 07:32:04;;;;;;;;;;;;;;;17.73;43.24;100657.00;4996972;28;970;-51
2022/04/06 07:34:29;;;;;;;;;;;;;;;17.72;43.30;100658.09;5002019;28;1156;-49
2022/04/06 07:36:55;;;;;;;;;;;;;;;17.71;43.57;100662.78;5013803;28;1914;-51
2022/04/06 07:39:20;;;;;;;;;;;;;;;17.68;43.67;100666.09;5000688;28;1254;-51
2022/04/06 07:41:45;;;;;;;;;;;;;;;17.68;43.59;100666.09;4994497;28;1218;-51
2022/04/06 07:44:11;;;;;;;;;;;;;;;17.72;43.18;100656.16;5004650;28;1389;-51
2022/04/06 07:46:36;;;;;;;;;;;;;;;17.73;43.58;100665.25;4993476;28;1068;-52
2022/04/06 07:49:02;;;;;;;;;;;;;;;17.73;43.35;100657.81;5010704;28;1372;-48
2022/04/06 07:51:27;;;;;;;;;;;;;;;17.65;43.34;100646.59;5005748;28;1277;-52
2022/04/06 07:53:53;;;;;;;;;;;;;;;17.74;43.11;100653.13;4998543;28;1299;-50
2022/04/06 07:56:18;;;;;;;;;;;;;;;17.77;43.46;100650.66;5015288;28;1910;-52
2022/04/06 07:58:44;;;;;;;;;;;;;;;17.81;43.32;100656.41;5005985;28;1452;-52
2022/04/06 08:01:09;;;;;;;;;;;;;;;17.83;43.18;100665.19;5014202;28;1274;-51
2022/04/06 08:03:36;;;;;;;;;;;;;;;17.79;43.12;100644.84;5002733;28;1444;-51
2022/04/06 08:06:02;;;;;;;;;;;;;;;17.77;43.41;100647.91;4991550;28;1259;-51
2022/04/06 08:08:28;;;;;;;;;;;;;;;17.74;43.42;100644.88;4995649;28;1406;-49
2022/04/06 08:10:53;;;;;;;;;;;;;;;17.82;43.12;100654.47;5000363;28;1038;-50
2022/04/06 08:13:18;;;;;;;;;;;;;;;17.78;43.12;100644.06;4998678;28;1251;-51
2022/04/06 08:15:44;;;;;;;;;;;;;;;17.84;42.96;100642.09;4998060;28;1975;-51
2022/04/06 08:18:11;;;;;;;;;;;;;;;17.79;43.13;100640.19;4995760;28;1401;-52
2022/04/06 08:20:37;;;;;;;;;;;;;;;17.89;43.05;100657.72;4993831;28;1358;-51
2022/04/06 08:23:02;;;;;;;;;;;;;;;17.84;43.21;100649.50;4999249;28;1326;-50
2022/04/06 08:25:28;;;;;;;;;;;;;;;17.88;43.17;100645.06;4993184;28;1279;-49
2022/04/06 08:27:53;;;;;;;;;;;;;;;17.94;42.86;100647.53;4994245;28;1274;-50
2022/04/06 08:30:22;;;;;;;;;;;;;;;17.95;42.83;100649.19;5000603;28;1231;-50
2022/04/06 08:32:48;;;;;;;;;;;;;;;17.90;43.17;100653.88;5001819;28;1377;-49
2022/04/06 08:35:13;;;;;;;;;;;;;;;17.82;43.08;100646.22;5011879;28;1914;-49
2022/04/06 08:37:39;;;;;;;;;;;;;;;17.76;43.26;100648.19;4998734;28;1215;-51
2022/04/06 08:40:08;;;;;;;;;;;;;;;17.58;43.40;100646.91;4999249;28;1220;-51
2022/04/06 08:42:33;;;;;;;;;;;;;;;17.56;43.52;100640.88;5013879;28;1283;-50
2022/04/06 08:44:59;;;;;;;;;;;;;;;17.54;43.57;100640.34;4990096;28;1267;-51
2022/04/06 08:47:25;;;;;;;;;;;;;;;17.54;43.77;100641.16;5018074;28;822;-50
2022/04/06 08:49:50;;;;;;;;;;;;;;;17.47;43.72;100635.13;5018539;28;799;-50
2022/04/06 08:52:16;;;;;;;;;;;;;;;17.50;43.66;100644.75;5000605;28;889;-50
2022/04/06 08:54:41;;;;;;;;;;;;;;;17.39;43.97;100639.31;5015276;28;754;-51
2022/04/06 08:57:07;;;;;;;;;;;;;;;17.47;43.80;100634.34;5000422;28;1979;-60
2022/04/06 08:59:32;;;;;;;;;;;;;;;17.38;44.15;100625.84;4987743;28;851;-60
2022/04/06 09:01:58;;;;;;;;;;;;;;;17.35;43.89;100619.00;5000497;28;1152;-60
2022/04/06 09:04:24;;;;;;;;;;;;;;;17.31;43.83;100626.16;5011433;28;855;-60
2022/04/06 09:06:50;;;;;;;;;;;;;;;17.27;44.05;100614.91;5017810;28;834;-60
2022/04/06 09:09:22;;;;;;;;;;;;;;;17.30;44.14;100619.00;5011966;28;762;-60
2022/04/06 09:11:48;;;;;;;;;;;;;;;17.31;43.62;100612.41;5015728;28;874;-60
2022/04/06 09:14:13;;;;;;;;;;;;;;;17.25;44.19;100610.78;5009046;28;1396;-51
2022/04/06 09:16:39;;;;;;;;;;;;;;;17.24;43.97;100598.16;5008057;28;1914;-51
2022/04/06 09:19:11;;;;;;;;;;;;;;;17.19;44.03;100617.41;5001314;28;1412;-51
2022/04/06 09:21:40;;;;;;;;;;;;;;;17.19;43.88;100606.44;4997320;28;1222;-51
2022/04/06 09:24:12;;;;;;;;;;;;;;;17.19;43.89;100614.66;5003401;28;1084;-51
2022/04/06 09:26:37;;;;;;;;;;;;;;;17.16;44.10;100599.56;5000817;28;1358;-51
2022/04/06 09:29:03;;;;;;;;;;;;;;;17.19;44.16;100611.91;4998556;28;1273;-49
2022/04/06 09:31:28;;;;;;;;;;;;;;;17.16;44.43;100604.25;5015414;28;1393;-49
2022/04/06 09:34:00;;;;;;;;;;;;;;;17.19;44.18;100614.66;4988520;28;1547;-52
2022/04/06 09:36:26;;;;;;;;;;;;;;;17.17;44.20;100619.63;5001605;28;1926;-49
2022/04/06 09:38:51;;;;;;;;;;;;;;;17.07;43.96;100604.84;4998047;28;1394;-52
2022/04/06 09:41:19;;;;;;;;;;;;;;;17.07;44.03;100593.84;5017038;28;1326;-51
2022/04/06 09:43:44;;;;;;;;;;;;;;;17.11;43.87;100588.63;4996222;28;1204;-53
2022/04/06 09:49:05;;;;;;;;;;;;;;;17.09;44.13;100583.38;4996425;28;1246;-51
2022/04/06 09:51:31;;;;;;;;;;;;;;;17.06;44.02;100596.88;5001617;28;1004;-49
2022/04/06 09:53:56;;;;;;;;;;;;;;;17.04;44.14;100588.06;4996262;28;1418;-51
2022/04/06 09:56:22;;;;;;;;;;;;;;;17.04;43.98;100572.44;4998822;28;1969;-51
2022/04/06 09:58:48;;;;;;;;;;;;;;;17.09;44.07;100579.81;4998334;28;799;-50
2022/04/06 10:01:14;;;;;;;;;;;;;;;17.07;44.12;100585.59;5004981;28;1073;-52
2022/04/06 10:03:40;;;;;;;;;;;;;;;17.07;43.86;100585.59;4998735;28;1432;-48
2022/04/06 10:06:05;;;;;;;;;;;;;;;17.03;43.86;100581.78;5009994;28;830;-50
2022/04/06 10:08:32;;;;;;;;;;;;;;;17.02;43.98;100587.53;4978757;28;1125;-49
2022/04/06 10:10:58;;;;;;;;;;;;;;;17.04;43.83;100583.44;4987672;28;1081;-50
2022/04/06 10:13:24;;;;;;;;;;;;;;;16.99;44.00;100575.19;5009659;28;1325;-52
2022/04/06 10:15:50;;;;;;;;;;;;;;;17.03;43.90;100576.28;5002516;28;1977;-48
2022/04/06 10:18:15;;;;;;;;;;;;;;;16.87;44.06;100583.75;5009782;28;738;-50
2022/04/06 10:20:54;;;;;;;;;;;;;;;16.93;43.99;100574.41;4978551;28;1321;-51
2022/04/06 10:23:20;;;;;;;;;;;;;;;16.98;44.04;100572.72;4995389;28;1384;-52
2022/04/06 10:25:57;;;;;;;;;;;;;;;16.97;43.89;100571.06;4993862;28;1283;-49
2022/04/06 10:28:23;;;;;;;;;;;;;;;16.97;44.20;100576.56;4991057;28;942;-52
2022/04/06 10:31:22;;;;;;;;;;;;;;;16.95;44.08;100567.81;5000369;28;1358;-52
2022/04/06 10:33:48;;;;;;;;;;;;;;;17.04;43.87;100572.44;4957196;28;1479;-50
2022/04/06 10:36:21;;;;;;;;;;;;;;;17.11;44.03;100572.13;5000908;28;1910;-47
2022/04/06 10:39:05;;;;;;;;;;;;;;;17.00;44.35;100582.34;4990739;28;1225;-51
2022/04/06 10:41:33;;;;;;;;;;;;;;;17.09;44.33;100577.88;5004687;28;1203;-49
2022/04/06 10:43:59;;;;;;;;;;;;;;;17.12;44.27;100579.25;4994709;28;1168;-48
2022/04/06 10:46:40;;;;;;;;;;;;;;;17.07;44.37;100571.88;4982117;28;1178;-51
2022/04/06 10:49:09;;;;;;;;;;;;;;;17.10;44.28;100579.53;4997245;28;902;-49
2022/04/06 10:51:37;;;;;;;;;;;;;;;17.09;44.24;100575.13;5006923;28;1195;-51
2022/04/06 10:54:11;;;;;;;;;;;;;;;17.07;44.39;100582.84;4999110;28;1147;-50
2022/04/06 10:56:46;;;;;;;;;;;;;;;17.09;44.23;100579.81;5012577;28;1913;-51
2022/04/06 10:59:14;;;;;;;;;;;;;;;17.08;44.30;100589.16;5004431;28;1306;-52
2022/04/06 11:01:45;;;;;;;;;;;;;;;17.14;44.20;100590.78;4990090;28;1116;-51
2022/04/06 11:04:23;;;;;;;;;;;;;;;17.10;44.42;100587.78;4998025;28;1330;-50
2022/04/06 11:06:55;;;;;;;;;;;;;;;17.10;44.42;100576.78;4996085;28;1330;-52
2022/04/06 11:12:08;;;;;;;;;;;;;;;17.17;44.27;100583.91;5001348;28;1168;-51
2022/04/06 11:14:34;;;;;;;;;;;;;;;17.20;44.18;100586.09;5003080;28;1334;-51
2022/04/06 11:17:00;;;;;;;;;;;;;;;17.14;44.26;100576.22;5000262;28;1925;-49
2022/04/06 11:19:25;;;;;;;;;;;;;;;17.13;44.35;100580.09;5008950;28;1009;-50
2022/04/06 11:21:55;;;;;;;;;;;;;;;17.15;44.25;100572.38;5013153;28;1449;-51
2022/04/06 11:24:21;;;;;;;;;;;;;;;17.13;44.64;100580.09;5004300;28;1479;-50
2022/04/06 11:26:47;;;;;;;;;;;;;;;17.10;44.43;100576.78;4998692;28;1523;-51
2022/04/06 11:29:13;;;;;;;;;;;;;;;17.09;44.44;100563.34;5001985;28;1156;-49
2022/04/06 11:31:57;;;;;;;;;;;;;;;17.21;44.49;100579.50;4995388;28;1500;-57
2022/04/06 11:34:29;;;;;;;;;;;;;;;17.30;44.75;100585.22;4981827;28;1321;-58
2022/04/06 11:37:01;;;;;;;;;;;;;;;17.41;44.72;100573.06;4990409;28;1902;-57
2022/04/06 11:39:32;;;;;;;;;;;;;;;17.37;44.84;100586.53;4988036;28;1156;-57
2022/04/06 11:41:58;;;;;;;;;;;;;;;17.26;45.11;100573.97;4993921;28;1142;-56
2022/04/06 11:44:26;;;;;;;;;;;;;;;17.29;45.09;100567.91;4981812;28;1402;-58
2022/04/06 11:46:52;;;;;;;;;;;;;;;17.33;44.90;100568.16;5008028;28;748;-56
2022/04/06 11:49:24;;;;;;;;;;;;;;;17.28;45.01;100566.28;4994015;28;1511;-59
2022/04/06 11:51:53;;;;;;;;;;;;;;;17.31;45.11;100571.19;4993678;28;1346;-60
2022/04/06 11:54:19;;;;;;;;;;;;;;;17.38;44.78;100568.94;5000838;28;1346;-58
2022/04/06 11:56:47;;;;;;;;;;;;;;;17.35;45.04;100566.78;4995316;28;1906;-55
2022/04/06 11:59:16;;;;;;;;;;;;;;;17.30;45.27;100568.72;4995956;28;1171;-55
2022/04/06 12:01:42;;;;;;;;;;;;;;;17.31;45.26;100564.88;5009181;28;1420;-59
2022/04/06 12:04:18;;;;;;;;;;;;;;;17.33;45.28;100574.47;5002370;28;1468;-57
2022/04/06 12:06:44;;;;;;;;;;;;;;;17.33;45.00;100563.47;4999414;28;1282;-55
2022/04/06 12:09:10;;;;;;;;;;;;;;;17.44;44.73;100554.06;4997953;28;1270;-55
2022/04/06 12:11:35;;;;;;;;;;;;;;;17.42;44.65;100563.72;4997749;28;1188;-55
2022/04/06 12:14:01;;;;;;;;;;;;;;;17.50;44.44;100562.28;4999426;28;1507;-56
2022/04/06 12:16:27;;;;;;;;;;;;;;;17.43;44.36;100546.94;4988983;28;1898;-55
2022/04/06 12:18:52;;;;;;;;;;;;;;;17.43;44.45;100552.44;5010570;28;1400;-55
2022/04/06 12:21:18;;;;;;;;;;;;;;;17.45;44.37;100552.97;5009855;28;1274;-55
2022/04/06 12:23:44;;;;;;;;;;;;;;;17.38;44.44;100538.72;4998173;28;1333;-55
2022/04/06 12:26:11;;;;;;;;;;;;;;;17.35;44.57;100544.78;5011440;28;1422;-55
2022/04/06 12:28:36;;;;;;;;;;;;;;;17.39;44.45;100543.13;5018279;28;893;-55
2022/04/06 12:31:08;;;;;;;;;;;;;;;17.40;44.78;100547.50;4992216;28;1086;-55
2022/04/06 12:33:41;;;;;;;;;;;;;;;17.41;44.60;100546.38;4998854;28;1345;-55
2022/04/06 12:36:25;;;;;;;;;;;;;;;17.46;44.44;100545.56;4998162;28;1906;-55
2022/04/06 12:39:10;;;;;;;;;;;;;;;17.53;44.44;100556.22;4999290;28;1441;-53
2022/04/06 12:41:55;;;;;;;;;;;;;;;17.42;44.44;100539.78;5012846;28;1206;-56
2022/04/06 12:44:20;;;;;;;;;;;;;;;17.43;44.67;100538.69;4994756;28;1186;-57
2022/04/06 12:46:46;;;;;;;;;;;;;;;17.52;44.75;100540.84;5011963;28;1591;-54
2022/04/06 12:49:21;;;;;;;;;;;;;;;17.57;44.37;100543.53;5008764;28;1025;-58
2022/04/06 12:51:47;;;;;;;;;;;;;;;17.59;44.56;100539.41;4999629;28;1120;-56
2022/04/06 12:54:12;;;;;;;;;;;;;;;17.60;44.54;100545.75;5000288;28;849;-58
2022/04/06 12:56:38;;;;;;;;;;;;;;;17.51;44.59;100536.44;4999157;28;2038;-58
2022/04/06 12:59:10;;;;;;;;;;;;;;;17.54;44.56;100527.63;4998141;28;1350;-56